Empire — PD5101 — position and weather

sailwx.info

Track history (hours):
 
Tides and Currents Weather Stations Pressure Air Temp Water Temp Dewpoint Dewpoint Depression Visibility Wind Speed Wind Dir Waves Ship Positions

Empire

Last reported at 2015-Jul-05 12:23 UTC. Time now 2015-Jul-06 15:41 UTC.
Position N 50°49' E 007°02'.

Length 183 m; draft 3 m.

Type: Ship. MMSI: 244670090.

Date/timePositionNaut miles runAvg speedWind from/ knotsBaromVisibWave heightAir tempDewpointWater temp
2015-Jul-05 12:23N 50°49' E 007°02'4 3.5
2015-Jul-05 11:23N 50°52' E 007°02'4 4.3
2015-Jul-05 10:29N 50°55' E 006°58'14 4.7
2015-Jul-05 07:28N 51°09' E 006°51'2 2.6
2015-Jul-05 06:33N 51°10' E 006°48'4 4.3
2015-Jul-05 05:31N 51°14' E 006°44'20 3.8
2015-Jul-05 00:20N 51°33' E 006°41'36 5.0
2015-Jul-04 17:09N 51°51' E 005°51'4 6.9
2015-Jul-04 16:33N 51°53' E 005°45'13 6.1
2015-Jul-04 14:26N 51°51' E 005°25'5 5.3
2015-Jul-04 13:30N 51°49' E 005°17'22 7.5
2015-Jul-04 10:32N 51°49' E 004°41'7 7.0
2015-Jul-04 09:33N 51°54' E 004°33'5 5.3
2015-Jul-04 08:33N 51°53' E 004°25'0 0.1
2015-Jul-04 07:33N 51°53' E 004°25'0 0.0
2015-Jul-04 06:33N 51°53' E 004°25'0 0.0
2015-Jul-04 05:33N 51°53' E 004°25'0 0.0
2015-Jul-04 04:31N 51°53' E 004°25'0 0.0
2015-Jul-04 03:33N 51°53' E 004°25'0 0.0
2015-Jul-04 02:32N 51°53' E 004°25'0 0.0
2015-Jul-04 01:31N 51°53' E 004°25'0 0.0
2015-Jul-04 00:31N 51°53' E 004°25'0 0.0
2015-Jul-03 23:29N 51°53' E 004°25'0 0.0
2015-Jul-03 22:28N 51°53' E 004°25'0 0.0
2015-Jul-03 21:33N 51°53' E 004°25'0 0.0
2015-Jul-03 20:28N 51°53' E 004°25'0 0.0
2015-Jul-03 19:33N 51°53' E 004°25'0 0.2
2015-Jul-03 18:33N 51°53' E 004°24'0 0.0
2015-Jul-03 17:33N 51°53' E 004°24'0 0.0
2015-Jul-03 16:33N 51°53' E 004°24'0 0.0
2015-Jul-03 15:33N 51°53' E 004°24'0 0.0
2015-Jul-03 14:33N 51°53' E 004°24'0 0.0
2015-Jul-03 13:31N 51°53' E 004°24'0 0.1
2015-Jul-03 12:33N 51°53' E 004°24'0 0.0
2015-Jul-03 11:33N 51°53' E 004°24'0 0.0
2015-Jul-03 10:33N 51°53' E 004°24'0 0.0
2015-Jul-03 09:33N 51°53' E 004°24'0 0.0
2015-Jul-03 08:33N 51°53' E 004°24'0 0.1
2015-Jul-03 07:33N 51°54' E 004°24'4 3.7
2015-Jul-03 06:33N 51°52' E 004°19'3 2.8
2015-Jul-03 05:33N 51°53' E 004°15'6 5.8
2015-Jul-03 04:33N 51°56' E 004°07'3 3.3
2015-Jul-03 03:33N 51°58' E 004°03'1 0.8
2015-Jul-03 02:33N 51°59' E 004°02'0 0.0
2015-Jul-03 01:33N 51°59' E 004°02'0 0.0
2015-Jul-03 00:33N 51°59' E 004°02'0 0.1
2015-Jul-02 23:33N 51°59' E 004°01'0 0.3
2015-Jul-02 22:33N 51°59' E 004°01'1 1.4
2015-Jul-02 21:33N 51°57' E 003°60'0 0.3
2015-Jul-02 20:33N 51°58' E 003°60'2 2.0
2015-Jul-02 19:33N 51°58' E 004°03'1 1.1
2015-Jul-02 18:33N 51°57' E 004°05'0 0.5
2015-Jul-02 17:33N 51°57' E 004°04'0 0.0
2015-Jul-02 16:33N 51°57' E 004°04'0 0.0
2015-Jul-02 15:33N 51°57' E 004°04'0 0.0
2015-Jul-02 14:33N 51°57' E 004°04'1 0.6
2015-Jul-02 13:33N 51°58' E 004°04'0 0.0
2015-Jul-02 12:33N 51°58' E 004°04'4 3.5
2015-Jul-02 11:33N 51°56' E 004°09'8 8.3
2015-Jul-02 10:33N 51°51' E 004°21'9 8.8
2015-Jul-02 09:33N 51°49' E 004°34'8 8.1
2015-Jul-02 08:33N 51°49' E 004°47'11 9.0
2015-Jul-02 07:19N 51°50' E 005°06'9 9.2
2015-Jul-02 06:23N 51°49' E 005°19'15 8.4
2015-Jul-02 04:33N 51°53' E 005°43'10 7.8
2015-Jul-02 03:13N 51°53' E 006°00'10 9.7
2015-Jul-02 02:09N 51°49' E 006°16'8 8.3
2015-Jul-02 01:08N 51°43' E 006°25'12 7.6
2015-Jul-01 23:32N 51°35' E 006°39'16 7.0
2015-Jul-01 21:13N 51°19' E 006°44'5 8.2
2015-Jul-01 20:33N 51°14' E 006°46'5 4.6
2015-Jul-01 19:30N 51°09' E 006°50'15 7.4
2015-Jul-01 17:29N 50°55' E 006°58'  
2015-Jun-28 10:31N 50°50' E 006°59'4 4.2
2015-Jun-28 09:32N 50°54' E 007°02'17 4.2
2015-Jun-28 05:29N 51°09' E 006°49'4 4.3
2015-Jun-28 04:33N 51°11' E 006°44'4 3.6
2015-Jun-28 03:33N 51°15' E 006°46'50 4.1
2015-Jun-27 15:24N 51°51' E 005°51'18 6.3
2015-Jun-27 12:33N 51°49' E 005°22'14 7.0
2015-Jun-27 10:30N 51°49' E 004°59'8 9.0
2015-Jun-27 09:33N 51°49' E 004°45'8 8.3
2015-Jun-27 08:34N 51°54' E 004°34'7 3.2
2015-Jun-27 06:33N 51°53' E 004°24'0 0.3
2015-Jun-27 05:33N 51°53' E 004°25'0 0.0
2015-Jun-27 04:33N 51°53' E 004°25'0 0.0
2015-Jun-27 03:33N 51°53' E 004°25'0 0.0
2015-Jun-27 02:33N 51°53' E 004°25'0 0.0
2015-Jun-27 01:33N 51°53' E 004°25'0 0.0
2015-Jun-27 00:33N 51°53' E 004°25'1 0.8
2015-Jun-26 23:22N 51°53' E 004°26'0 0.0
2015-Jun-26 22:33N 51°53' E 004°26'0 0.0
2015-Jun-26 21:33N 51°53' E 004°26'0 0.1
2015-Jun-26 20:32N 51°53' E 004°25'1 0.7
2015-Jun-26 19:33N 51°53' E 004°26'0 0.0
2015-Jun-26 18:33N 51°53' E 004°26'0 0.0
2015-Jun-26 17:33N 51°53' E 004°26'0 0.0
2015-Jun-26 16:33N 51°53' E 004°26'0 0.0
2015-Jun-26 15:33N 51°53' E 004°26'0 0.0
2015-Jun-26 09:12N 51°53' E 004°26'0 0.0
2015-Jun-26 07:20N 51°53' E 004°26'0 0.0
2015-Jun-26 06:33N 51°53' E 004°26'1 1.4
2015-Jun-26 05:33N 51°53' E 004°24'0 0.0
2015-Jun-26 04:33N 51°53' E 004°24'0 0.0
2015-Jun-26 03:33N 51°53' E 004°24'0 0.0
2015-Jun-26 02:33N 51°53' E 004°24'0 0.0
2015-Jun-26 01:33N 51°53' E 004°24'0 0.0
2015-Jun-26 00:33N 51°53' E 004°24'0 0.0
2015-Jun-25 23:33N 51°53' E 004°24'0 0.0
2015-Jun-25 22:33N 51°53' E 004°24'0 0.0
2015-Jun-25 21:33N 51°53' E 004°24'0 0.0
2015-Jun-25 20:33N 51°53' E 004°24'1 0.6
2015-Jun-25 19:33N 51°53' E 004°25'0 0.1
2015-Jun-25 18:33N 51°53' E 004°25'1 0.5
2015-Jun-25 17:33N 51°53' E 004°24'3 2.5
2015-Jun-25 16:33N 51°54' E 004°27'7 7.4
2015-Jun-25 15:33N 51°52' E 004°39'8 7.8
2015-Jun-25 14:33N 51°49' E 004°51'12 9.6
2015-Jun-25 13:15N 51°49' E 005°11'7 9.4
2015-Jun-25 12:32N 51°48' E 005°22'  
Track history (hours):
 
Tides and Currents Weather Stations Pressure Air Temp Water Temp Dewpoint Dewpoint Depression Visibility Wind Speed Wind Dir Waves Ship Positions

Empire

Last reported at 2015-Jul-05 12:23 UTC. Time now 2015-Jul-06 15:41 UTC.
Position N 50°49' E 007°02'.

Length 183 m; draft 3 m.

Type: Ship. MMSI: 244670090.

Date/timePositionNaut miles runAvg speedWind from/ knotsBaromVisibWave heightAir tempDewpointWater temp
2015-Jul-05 12:23N 50°49' E 007°02'4 3.5
2015-Jul-05 11:23N 50°52' E 007°02'4 4.3
2015-Jul-05 10:29N 50°55' E 006°58'14 4.7
2015-Jul-05 07:28N 51°09' E 006°51'2 2.6
2015-Jul-05 06:33N 51°10' E 006°48'4 4.3
2015-Jul-05 05:31N 51°14' E 006°44'20 3.8
2015-Jul-05 00:20N 51°33' E 006°41'36 5.0
2015-Jul-04 17:09N 51°51' E 005°51'4 6.9
2015-Jul-04 16:33N 51°53' E 005°45'13 6.1
2015-Jul-04 14:26N 51°51' E 005°25'5 5.3
2015-Jul-04 13:30N 51°49' E 005°17'22 7.5
2015-Jul-04 10:32N 51°49' E 004°41'7 7.0
2015-Jul-04 09:33N 51°54' E 004°33'5 5.3
2015-Jul-04 08:33N 51°53' E 004°25'0 0.1
2015-Jul-04 07:33N 51°53' E 004°25'0 0.0
2015-Jul-04 06:33N 51°53' E 004°25'0 0.0
2015-Jul-04 05:33N 51°53' E 004°25'0 0.0
2015-Jul-04 04:31N 51°53' E 004°25'0 0.0
2015-Jul-04 03:33N 51°53' E 004°25'0 0.0
2015-Jul-04 02:32N 51°53' E 004°25'0 0.0
2015-Jul-04 01:31N 51°53' E 004°25'0 0.0
2015-Jul-04 00:31N 51°53' E 004°25'0 0.0
2015-Jul-03 23:29N 51°53' E 004°25'0 0.0
2015-Jul-03 22:28N 51°53' E 004°25'0 0.0
2015-Jul-03 21:33N 51°53' E 004°25'0 0.0
2015-Jul-03 20:28N 51°53' E 004°25'0 0.0
2015-Jul-03 19:33N 51°53' E 004°25'0 0.2
2015-Jul-03 18:33N 51°53' E 004°24'0 0.0
2015-Jul-03 17:33N 51°53' E 004°24'0 0.0
2015-Jul-03 16:33N 51°53' E 004°24'0 0.0
2015-Jul-03 15:33N 51°53' E 004°24'0 0.0
2015-Jul-03 14:33N 51°53' E 004°24'0 0.0
2015-Jul-03 13:31N 51°53' E 004°24'0 0.1
2015-Jul-03 12:33N 51°53' E 004°24'0 0.0
2015-Jul-03 11:33N 51°53' E 004°24'0 0.0
2015-Jul-03 10:33N 51°53' E 004°24'0 0.0
2015-Jul-03 09:33N 51°53' E 004°24'0 0.0
2015-Jul-03 08:33N 51°53' E 004°24'0 0.1
2015-Jul-03 07:33N 51°54' E 004°24'4 3.7
2015-Jul-03 06:33N 51°52' E 004°19'3 2.8
2015-Jul-03 05:33N 51°53' E 004°15'6 5.8
2015-Jul-03 04:33N 51°56' E 004°07'3 3.3
2015-Jul-03 03:33N 51°58' E 004°03'1 0.8
2015-Jul-03 02:33N 51°59' E 004°02'0 0.0
2015-Jul-03 01:33N 51°59' E 004°02'0 0.0
2015-Jul-03 00:33N 51°59' E 004°02'0 0.1
2015-Jul-02 23:33N 51°59' E 004°01'0 0.3
2015-Jul-02 22:33N 51°59' E 004°01'1 1.4
2015-Jul-02 21:33N 51°57' E 003°60'0 0.3
2015-Jul-02 20:33N 51°58' E 003°60'2 2.0
2015-Jul-02 19:33N 51°58' E 004°03'1 1.1
2015-Jul-02 18:33N 51°57' E 004°05'0 0.5
2015-Jul-02 17:33N 51°57' E 004°04'0 0.0
2015-Jul-02 16:33N 51°57' E 004°04'0 0.0
2015-Jul-02 15:33N 51°57' E 004°04'0 0.0
2015-Jul-02 14:33N 51°57' E 004°04'1 0.6
2015-Jul-02 13:33N 51°58' E 004°04'0 0.0
2015-Jul-02 12:33N 51°58' E 004°04'4 3.5
2015-Jul-02 11:33N 51°56' E 004°09'8 8.3
2015-Jul-02 10:33N 51°51' E 004°21'9 8.8
2015-Jul-02 09:33N 51°49' E 004°34'8 8.1
2015-Jul-02 08:33N 51°49' E 004°47'11 9.0
2015-Jul-02 07:19N 51°50' E 005°06'9 9.2
2015-Jul-02 06:23N 51°49' E 005°19'15 8.4
2015-Jul-02 04:33N 51°53' E 005°43'10 7.8
2015-Jul-02 03:13N 51°53' E 006°00'10 9.7
2015-Jul-02 02:09N 51°49' E 006°16'8 8.3
2015-Jul-02 01:08N 51°43' E 006°25'12 7.6
2015-Jul-01 23:32N 51°35' E 006°39'16 7.0
2015-Jul-01 21:13N 51°19' E 006°44'5 8.2
2015-Jul-01 20:33N 51°14' E 006°46'5 4.6
2015-Jul-01 19:30N 51°09' E 006°50'15 7.4
2015-Jul-01 17:29N 50°55' E 006°58'  
2015-Jun-28 10:31N 50°50' E 006°59'4 4.2
2015-Jun-28 09:32N 50°54' E 007°02'17 4.2
2015-Jun-28 05:29N 51°09' E 006°49'4 4.3
2015-Jun-28 04:33N 51°11' E 006°44'4 3.6
2015-Jun-28 03:33N 51°15' E 006°46'50 4.1
2015-Jun-27 15:24N 51°51' E 005°51'18 6.3
2015-Jun-27 12:33N 51°49' E 005°22'14 7.0
2015-Jun-27 10:30N 51°49' E 004°59'8 9.0
2015-Jun-27 09:33N 51°49' E 004°45'8 8.3
2015-Jun-27 08:34N 51°54' E 004°34'7 3.2
2015-Jun-27 06:33N 51°53' E 004°24'0 0.3
2015-Jun-27 05:33N 51°53' E 004°25'0 0.0
2015-Jun-27 04:33N 51°53' E 004°25'0 0.0
2015-Jun-27 03:33N 51°53' E 004°25'0 0.0
2015-Jun-27 02:33N 51°53' E 004°25'0 0.0
2015-Jun-27 01:33N 51°53' E 004°25'0 0.0
2015-Jun-27 00:33N 51°53' E 004°25'1 0.8
2015-Jun-26 23:22N 51°53' E 004°26'0 0.0
2015-Jun-26 22:33N 51°53' E 004°26'0 0.0
2015-Jun-26 21:33N 51°53' E 004°26'0 0.1
2015-Jun-26 20:32N 51°53' E 004°25'1 0.7
2015-Jun-26 19:33N 51°53' E 004°26'0 0.0
2015-Jun-26 18:33N 51°53' E 004°26'0 0.0
2015-Jun-26 17:33N 51°53' E 004°26'0 0.0
2015-Jun-26 16:33N 51°53' E 004°26'0 0.0
2015-Jun-26 15:33N 51°53' E 004°26'0 0.0
2015-Jun-26 09:12N 51°53' E 004°26'0 0.0
2015-Jun-26 07:20N 51°53' E 004°26'0 0.0
2015-Jun-26 06:33N 51°53' E 004°26'1 1.4
2015-Jun-26 05:33N 51°53' E 004°24'0 0.0
2015-Jun-26 04:33N 51°53' E 004°24'0 0.0
2015-Jun-26 03:33N 51°53' E 004°24'0 0.0
2015-Jun-26 02:33N 51°53' E 004°24'0 0.0
2015-Jun-26 01:33N 51°53' E 004°24'0 0.0
2015-Jun-26 00:33N 51°53' E 004°24'0 0.0
2015-Jun-25 23:33N 51°53' E 004°24'0 0.0
2015-Jun-25 22:33N 51°53' E 004°24'0 0.0
2015-Jun-25 21:33N 51°53' E 004°24'0 0.0
2015-Jun-25 20:33N 51°53' E 004°24'1 0.6
2015-Jun-25 19:33N 51°53' E 004°25'0 0.1
2015-Jun-25 18:33N 51°53' E 004°25'1 0.5
2015-Jun-25 17:33N 51°53' E 004°24'3 2.5
2015-Jun-25 16:33N 51°54' E 004°27'7 7.4
2015-Jun-25 15:33N 51°52' E 004°39'8 7.8
2015-Jun-25 14:33N 51°49' E 004°51'12 9.6
2015-Jun-25 13:15N 51°49' E 005°11'7 9.4
2015-Jun-25 12:32N 51°48' E 005°22'  

Dump ship's entire track history